createdAt,value
2023-04-08T00:01:03.586Z,100824.94
2023-04-08T00:03:32.675Z,100817.00
2023-04-08T00:06:03.648Z,100818.81
2023-04-08T00:08:32.264Z,100824.94
2023-04-08T00:11:00.911Z,100818.81
2023-04-08T00:13:29.329Z,100820.50
2023-04-08T00:15:58.395Z,100824.09
2023-04-08T00:18:27.356Z,100817.13
2023-04-08T00:20:57.427Z,100819.78
2023-04-08T00:23:25.950Z,100821.56
2023-04-08T00:25:54.777Z,100818.16
2023-04-08T00:28:23.152Z,100815.41
2023-04-08T00:30:53.395Z,100815.41
2023-04-08T00:33:21.937Z,100818.16
2023-04-08T00:35:51.760Z,100818.06
2023-04-08T00:38:20.098Z,100818.06
2023-04-08T00:40:48.722Z,100809.28
2023-04-08T00:43:17.131Z,100808.44
2023-04-08T00:45:46.100Z,100804.06
2023-04-08T00:48:14.555Z,100804.91
2023-04-08T00:50:47.486Z,100793.59
2023-04-08T00:53:18.393Z,100804.06
2023-04-08T00:55:47.364Z,100805.06
2023-04-08T00:58:15.672Z,100811.19
2023-04-08T01:01:10.411Z,100811.28
2023-04-08T01:04:36.569Z,100815.66
2023-04-08T01:07:14.055Z,100818.31
2023-04-08T01:09:49.633Z,100815.66
2023-04-08T01:12:30.437Z,100808.75
2023-04-08T01:15:08.431Z,100808.00
2023-04-08T01:17:37.242Z,100803.59
2023-04-08T01:20:06.830Z,100812.28
2023-04-08T01:23:10.151Z,100808.88
2023-04-08T01:25:38.827Z,100810.66
2023-04-08T01:28:18.258Z,100811.41
2023-04-08T01:30:47.660Z,100806.97
2023-04-08T01:33:17.685Z,100804.44
2023-04-08T01:35:46.346Z,100802.72
2023-04-08T01:38:18.232Z,100803.59
2023-04-08T01:40:47.638Z,100812.47
2023-04-08T01:43:17.794Z,100801.88
2023-04-08T01:45:47.612Z,100806.44
2023-04-08T01:48:16.650Z,100807.19
2023-04-08T01:50:45.192Z,100801.16
2023-04-08T01:53:15.649Z,100808.13
2023-04-08T01:55:44.022Z,100804.63
2023-04-08T01:58:19.408Z,100799.22
2023-04-08T02:00:47.797Z,100801.03
2023-04-08T02:08:13.038Z,100804.72
2023-04-08T02:10:41.348Z,100806.66
2023-04-08T02:13:09.936Z,100809.19
2023-04-08T02:15:40.889Z,100805.59
2023-04-08T02:18:16.802Z,100807.53
2023-04-08T02:20:59.654Z,100808.34
2023-04-08T02:23:29.747Z,100807.53
2023-04-08T02:25:58.076Z,100804.00
2023-04-08T02:28:28.897Z,100816.31
2023-04-08T02:30:57.219Z,100811.00
2023-04-08T02:33:25.924Z,100805.91
2023-04-08T02:35:55.023Z,100801.47
2023-04-08T02:38:30.027Z,100804.97
2023-04-08T02:40:58.851Z,100804.00
2023-04-08T02:43:31.989Z,100804.97
2023-04-08T02:46:03.441Z,100800.63
2023-04-08T02:48:32.411Z,100798.94
2023-04-08T02:51:00.752Z,100807.63
2023-04-08T02:53:29.353Z,100808.56
2023-04-08T02:55:57.691Z,100805.06
2023-04-08T02:58:26.515Z,100796.38
2023-04-08T03:00:54.969Z,100797.22
2023-04-08T03:03:28.637Z,100792.91
2023-04-08T03:05:57.338Z,100795.56
2023-04-08T03:08:26.022Z,100791.94
2023-04-08T03:10:54.343Z,100789.38
2023-04-08T03:13:23.014Z,100785.91
2023-04-08T03:15:51.369Z,100790.25
2023-04-08T03:18:20.061Z,100794.69
2023-04-08T03:20:48.403Z,100791.19
2023-04-08T03:23:17.015Z,100787.72
2023-04-08T03:25:45.542Z,100800.13
2023-04-08T03:28:14.142Z,100797.47
2023-04-08T03:30:42.612Z,100799.16
2023-04-08T03:33:11.394Z,100796.72
2023-04-08T03:35:39.957Z,100798.50
2023-04-08T03:38:08.982Z,100796.72
2023-04-08T03:40:37.281Z,100796.72
2023-04-08T03:43:06.901Z,100803.72
2023-04-08T03:45:35.179Z,100800.31
2023-04-08T03:48:04.224Z,100798.50
2023-04-08T03:50:32.691Z,100803.81
2023-04-08T03:53:01.239Z,100810.91
2023-04-08T03:55:29.450Z,100804.78
2023-04-08T03:57:57.952Z,100806.59
2023-04-08T04:00:26.202Z,100807.44
2023-04-08T04:02:56.517Z,100806.59
2023-04-08T04:05:24.869Z,100805.72
2023-04-08T04:07:53.444Z,100808.38
2023-04-08T04:10:21.738Z,100811.91
2023-04-08T04:12:50.858Z,100806.69
2023-04-08T04:15:19.128Z,100806.69
2023-04-08T04:17:51.169Z,100807.63
2023-04-08T04:20:19.689Z,100806.81
2023-04-08T04:22:48.275Z,100812.09
2023-04-08T04:25:16.509Z,100805.09
2023-04-08T04:27:45.145Z,100816.47
2023-04-08T04:30:15.764Z,100813.03
2023-04-08T04:32:44.547Z,100820.16
2023-04-08T04:35:13.123Z,100818.47
2023-04-08T04:37:42.024Z,100821.00
2023-04-08T04:40:10.896Z,100824.59
2023-04-08T04:42:39.457Z,100825.56
2023-04-08T04:45:09.631Z,100833.50
2023-04-08T04:47:38.338Z,100831.81
2023-04-08T04:50:07.614Z,100829.91
2023-04-08T04:52:37.387Z,100836.16
2023-04-08T04:55:06.554Z,100837.97
2023-04-08T04:57:35.512Z,100841.56
2023-04-08T05:00:05.586Z,100851.22
2023-04-08T05:02:35.132Z,100852.03
2023-04-08T05:05:03.964Z,100851.31
2023-04-08T05:07:36.447Z,100857.47
2023-04-08T05:10:06.124Z,100847.72
2023-04-08T05:12:34.744Z,100853.00
2023-04-08T05:15:03.365Z,100859.25
2023-04-08T05:17:32.138Z,100860.22
2023-04-08T05:20:01.041Z,100857.56
2023-04-08T05:22:29.628Z,100859.38
2023-04-08T05:24:57.916Z,100854.94
2023-04-08T05:27:26.510Z,100858.50
2023-04-08T05:29:54.842Z,100858.66
2023-04-08T05:32:23.421Z,100872.72
2023-04-08T05:34:51.614Z,100876.97
2023-04-08T05:37:20.385Z,100881.41
2023-04-08T05:39:48.656Z,100891.03
2023-04-08T05:42:17.460Z,100895.59
2023-04-08T05:44:45.776Z,100897.31
2023-04-08T05:47:15.213Z,100897.31
2023-04-08T05:49:43.824Z,100900.72
2023-04-08T05:52:12.383Z,100904.28
2023-04-08T05:54:44.315Z,100902.50
2023-04-08T05:57:12.985Z,100902.50
2023-04-08T05:59:41.212Z,100906.94
2023-04-08T06:02:10.104Z,100904.28
2023-04-08T06:04:38.704Z,100908.75
2023-04-08T06:07:08.637Z,100909.72
2023-04-08T06:09:37.631Z,100906.34
2023-04-08T06:12:06.412Z,100907.28
2023-04-08T06:14:34.799Z,100906.19
2023-04-08T06:17:03.499Z,100917.03
2023-04-08T06:19:31.747Z,100912.47
2023-04-08T06:22:00.382Z,100916.94
2023-04-08T06:24:29.612Z,100913.41
2023-04-08T06:26:58.271Z,100920.31
2023-04-08T06:29:26.502Z,100919.44
2023-04-08T06:31:55.520Z,100911.50
2023-04-08T06:34:23.868Z,100918.59
2023-04-08T06:36:52.657Z,100921.16
2023-04-08T06:39:21.897Z,100921.06
2023-04-08T06:41:51.370Z,100923.56
2023-04-08T06:44:38.974Z,100920.94
2023-04-08T06:47:07.774Z,100921.06
2023-04-08T06:49:37.526Z,100920.00
2023-04-08T06:52:07.086Z,100915.53
2023-04-08T06:54:35.619Z,100923.56
2023-04-08T06:57:04.484Z,100928.78
2023-04-08T06:59:32.899Z,100930.38
2023-04-08T07:02:01.685Z,100930.38
2023-04-08T07:04:29.985Z,100932.28
2023-04-08T07:06:58.519Z,100927.75
2023-04-08T07:09:26.776Z,100928.69
2023-04-08T07:11:58.636Z,100929.53
2023-04-08T07:14:26.975Z,100930.59
2023-04-08T07:16:56.482Z,100929.75
2023-04-08T07:19:24.769Z,100928.78
2023-04-08T07:21:53.416Z,100930.38
2023-04-08T07:24:21.845Z,100930.91
2023-04-08T07:26:50.571Z,100928.47
2023-04-08T07:29:18.847Z,100933.78
2023-04-08T07:31:47.496Z,100935.25
2023-04-08T07:34:16.777Z,100937.78
2023-04-08T07:36:46.000Z,100937.69
2023-04-08T07:39:14.347Z,100933.13
2023-04-08T07:41:42.945Z,100948.59
2023-04-08T07:44:11.444Z,100941.41
2023-04-08T07:46:40.132Z,100940.53
2023-04-08T07:49:08.502Z,100944.25
2023-04-08T07:51:37.146Z,100945.00
2023-04-08T07:54:05.649Z,100953.88
2023-04-08T07:56:34.334Z,100947.66
2023-04-08T07:59:02.651Z,100950.09
2023-04-08T08:01:34.964Z,100952.63
2023-04-08T08:04:03.797Z,100950.84
2023-04-08T08:06:32.611Z,100944.34
2023-04-08T08:09:01.246Z,100940.63
2023-04-08T08:11:29.983Z,100934.69
2023-04-08T08:13:58.293Z,100937.25
2023-04-08T08:16:30.748Z,100939.91
2023-04-08T08:18:59.733Z,100939.06
2023-04-08T08:21:28.475Z,100941.41
2023-04-08T08:23:57.085Z,100944.47
2023-04-08T08:26:25.895Z,100936.50
2023-04-08T08:28:54.636Z,100930.13
2023-04-08T08:31:23.278Z,100939.47
2023-04-08T08:33:51.831Z,100943.81
2023-04-08T08:36:20.792Z,100942.34
2023-04-08T08:38:49.229Z,100942.34
2023-04-08T08:41:18.150Z,100950.06
2023-04-08T08:43:46.563Z,100953.25
2023-04-08T08:46:17.558Z,100946.69
2023-04-08T08:48:46.527Z,100942.09
2023-04-08T08:51:15.633Z,100950.50
2023-04-08T08:53:45.680Z,100952.19
2023-04-08T08:56:18.285Z,100954.38
2023-04-08T08:58:47.953Z,100958.66
2023-04-08T09:01:49.456Z,100948.41
2023-04-08T09:04:23.101Z,100948.81
2023-04-08T09:07:10.897Z,100950.41
2023-04-08T09:09:51.716Z,100945.19
2023-04-08T09:12:20.814Z,100947.66
2023-04-08T09:14:49.223Z,100938.81
2023-04-08T09:17:34.605Z,100937.03
2023-04-08T09:20:13.788Z,100936.63
2023-04-08T09:23:01.948Z,100936.84
2023-04-08T09:25:32.825Z,100939.06
2023-04-08T09:28:03.092Z,100938.97
2023-04-08T09:30:31.647Z,100932.28
2023-04-08T09:33:01.742Z,100936.50
2023-04-08T09:35:30.188Z,100931.13
2023-04-08T09:37:59.114Z,100939.47
2023-04-08T09:40:27.416Z,100935.81
2023-04-08T09:42:56.313Z,100938.44
2023-04-08T09:45:24.565Z,100932.91
2023-04-08T09:48:15.785Z,100936.28
2023-04-08T09:50:50.648Z,100929.97
2023-04-08T09:53:38.311Z,100934.19
2023-04-08T09:56:08.929Z,100924.31
2023-04-08T09:58:56.249Z,100918.50
2023-04-08T10:01:35.187Z,100924.44
2023-04-08T10:04:05.310Z,100924.84
2023-04-08T10:06:33.692Z,100921.00
2023-04-08T10:09:02.789Z,100922.72
2023-04-08T10:11:31.189Z,100917.13
2023-04-08T10:13:59.839Z,100924.31
2023-04-08T10:16:28.363Z,100915.75
2023-04-08T10:18:57.169Z,100927.38
2023-04-08T10:21:48.716Z,100917.56
2023-04-08T10:24:18.867Z,100915.94
2023-04-08T10:26:49.004Z,100925.13
2023-04-08T10:29:29.092Z,100926.63
2023-04-08T10:31:58.127Z,100925.88
2023-04-08T10:34:27.407Z,100919.28
2023-04-08T10:36:59.005Z,100912.94
2023-04-08T10:39:27.748Z,100917.34
2023-04-08T10:41:56.610Z,100906.84
2023-04-08T10:44:28.259Z,100909.41
2023-04-08T10:46:56.692Z,100910.13
2023-04-08T10:49:33.418Z,100905.91
2023-04-08T10:52:01.823Z,100911.22
2023-04-08T10:54:30.457Z,100901.44
2023-04-08T10:56:58.735Z,100890.63
2023-04-08T10:59:33.267Z,100903.34
2023-04-08T11:02:02.915Z,100907.56
2023-04-08T11:04:32.271Z,100904.53
2023-04-08T11:07:00.807Z,100901.66
2023-04-08T11:09:29.499Z,100905.56
2023-04-08T11:11:57.799Z,100892.81
2023-04-08T11:14:26.815Z,100902.25
2023-04-08T11:16:55.169Z,100891.94
2023-04-08T11:19:23.808Z,100893.28
2023-04-08T11:21:52.098Z,100890.94
2023-04-08T11:24:20.827Z,100887.44
2023-04-08T11:26:49.108Z,100888.91
2023-04-08T11:29:17.800Z,100895.19
2023-04-08T11:31:47.365Z,100887.25
2023-04-08T11:34:24.078Z,100880.66
2023-04-08T11:36:52.657Z,100882.59
2023-04-08T11:39:23.966Z,100883.03
2023-04-08T11:41:52.262Z,100877.59
2023-04-08T11:44:20.859Z,100880.69
2023-04-08T11:46:58.927Z,100874.34
2023-04-08T11:49:27.497Z,100875.81
2023-04-08T11:51:59.956Z,100870.72
2023-04-08T11:54:29.350Z,100869.78
2023-04-08T11:56:58.613Z,100870.53
2023-04-08T11:59:29.288Z,100868.41
2023-04-08T12:01:59.163Z,100861.09
2023-04-08T12:04:28.181Z,100861.81
2023-04-08T12:06:58.264Z,100859.16
2023-04-08T12:09:28.466Z,100854.81
2023-04-08T12:11:57.718Z,100851.22
2023-04-08T12:14:28.251Z,100866.44
2023-04-08T12:16:56.902Z,100859.00
2023-04-08T12:19:25.792Z,100858.63
2023-04-08T12:21:54.156Z,100859.56
2023-04-08T12:24:22.777Z,100857.75
2023-04-08T12:26:51.104Z,100856.28
2023-04-08T12:29:19.941Z,100855.34
2023-04-08T12:31:48.224Z,100856.06
2023-04-08T12:34:17.119Z,100857.13
2023-04-08T12:36:45.319Z,100855.78
2023-04-08T12:39:13.819Z,100849.84
2023-04-08T12:41:42.109Z,100854.91
2023-04-08T12:44:11.071Z,100854.59
2023-04-08T12:46:39.467Z,100852.44
2023-04-08T12:49:09.110Z,100844.28
2023-04-08T12:51:37.570Z,100846.28
2023-04-08T12:54:06.098Z,100848.47
2023-04-08T12:56:34.834Z,100844.84
2023-04-08T12:59:03.453Z,100841.66
2023-04-08T13:01:32.072Z,100834.31
2023-04-08T13:04:00.871Z,100837.44
2023-04-08T13:06:29.204Z,100830.38
2023-04-08T13:08:57.905Z,100832.00
2023-04-08T13:11:26.077Z,100830.53
2023-04-08T13:13:54.721Z,100824.78
2023-04-08T13:16:23.023Z,100834.56
2023-04-08T13:18:52.641Z,100823.50
2023-04-08T13:21:21.583Z,100823.50
2023-04-08T13:23:50.105Z,100820.75
2023-04-08T13:26:18.427Z,100833.03
2023-04-08T13:28:56.791Z,100830.84
2023-04-08T13:31:26.652Z,100822.78
2023-04-08T13:33:57.938Z,100821.41
2023-04-08T13:36:29.234Z,100822.25
2023-04-08T13:38:57.989Z,100821.78
2023-04-08T13:41:28.262Z,100822.28
2023-04-08T13:43:57.070Z,100820.47
2023-04-08T13:46:25.441Z,100822.28
2023-04-08T13:48:54.512Z,100812.53
2023-04-08T13:51:22.997Z,100807.84
2023-04-08T13:53:52.231Z,100810.38
2023-04-08T13:56:21.198Z,100796.13
2023-04-08T13:58:56.364Z,100801.94
2023-04-08T14:01:25.968Z,100804.03
2023-04-08T14:03:54.658Z,100802.00
2023-04-08T14:06:22.916Z,100796.31
2023-04-08T14:08:51.766Z,100805.13
2023-04-08T14:11:20.157Z,100802.56
2023-04-08T14:13:48.703Z,100803.56
2023-04-08T14:16:16.963Z,100788.47
2023-04-08T14:18:45.728Z,100788.31
2023-04-08T14:21:15.814Z,100795.09
2023-04-08T14:23:44.484Z,100791.81
2023-04-08T14:26:12.673Z,100792.38
2023-04-08T14:28:41.694Z,100790.81
2023-04-08T14:31:09.987Z,100794.81
2023-04-08T14:33:39.891Z,100796.53
2023-04-08T14:36:09.040Z,100789.75
2023-04-08T14:38:39.432Z,100796.53
2023-04-08T14:41:08.502Z,100791.09
2023-04-08T14:43:37.163Z,100789.00
2023-04-08T14:46:05.706Z,100790.81
2023-04-08T14:48:34.318Z,100787.56
2023-04-08T14:51:02.535Z,100790.22
2023-04-08T14:53:31.272Z,100792.63
2023-04-08T14:56:00.239Z,100790.94
2023-04-08T14:58:28.889Z,100796.09
2023-04-08T15:00:57.159Z,100797.78
2023-04-08T15:03:26.213Z,100807.44
2023-04-08T15:05:57.828Z,100802.13
2023-04-08T15:08:26.507Z,100807.31
2023-04-08T15:10:54.756Z,100805.66
2023-04-08T15:13:23.799Z,100812.75
2023-04-08T15:15:52.169Z,100808.41
2023-04-08T15:18:21.033Z,100817.44
2023-04-08T15:20:49.277Z,100816.72
2023-04-08T15:23:18.088Z,100821.28
2023-04-08T15:25:46.589Z,100821.06
2023-04-08T15:28:15.576Z,100817.56
2023-04-08T15:30:44.031Z,100821.88
2023-04-08T15:33:13.250Z,100830.00
2023-04-08T15:35:41.953Z,100827.44
2023-04-08T15:38:10.948Z,100825.00
2023-04-08T15:40:39.434Z,100831.16
2023-04-08T15:43:10.516Z,100832.84
2023-04-08T15:45:44.448Z,100830.19
2023-04-08T15:48:13.472Z,100836.44
2023-04-08T15:50:42.331Z,100841.75
2023-04-08T15:53:11.330Z,100848.78
2023-04-08T15:55:40.849Z,100848.13
2023-04-08T15:58:09.731Z,100861.31
2023-04-08T16:00:38.205Z,100866.59
2023-04-08T16:03:08.969Z,100879.88
2023-04-08T16:05:39.915Z,100893.31
2023-04-08T16:08:08.750Z,100911.03
2023-04-08T16:10:37.509Z,100915.41
2023-04-08T16:13:06.496Z,100920.72
2023-04-08T16:15:35.837Z,100929.72
2023-04-08T16:18:05.912Z,100934.19
2023-04-08T16:20:38.015Z,100941.31
2023-04-08T16:23:06.946Z,100935.25
2023-04-08T16:25:35.528Z,100939.59
2023-04-08T16:28:05.091Z,100944.16
2023-04-08T16:30:33.582Z,100946.81
2023-04-08T16:33:02.442Z,100958.06
2023-04-08T16:35:30.878Z,100959.88
2023-04-08T16:37:59.735Z,100965.28
2023-04-08T16:40:28.566Z,100963.47
2023-04-08T16:42:57.532Z,100967.72
2023-04-08T16:45:28.625Z,100968.78
2023-04-08T16:47:57.937Z,100971.66
2023-04-08T16:50:27.413Z,100975.25
2023-04-08T16:52:56.236Z,100978.88
2023-04-08T16:55:24.770Z,100984.19
2023-04-08T16:57:53.572Z,100993.09
2023-04-08T17:00:22.438Z,100991.28
2023-04-08T17:02:53.360Z,101001.78
2023-04-08T17:05:26.311Z,100995.63
2023-04-08T17:07:56.647Z,101000.94
2023-04-08T17:10:25.150Z,101000.09
2023-04-08T17:12:54.025Z,101008.91
2023-04-08T17:15:22.572Z,101008.91
2023-04-08T17:17:52.711Z,101009.28
2023-04-08T17:20:22.602Z,101011.94
2023-04-08T17:22:51.584Z,101006.63
2023-04-08T17:25:20.135Z,101011.94
2023-04-08T17:27:48.978Z,101019.06
2023-04-08T17:30:17.487Z,101017.16
2023-04-08T17:32:46.323Z,101016.31
2023-04-08T17:35:14.834Z,101027.47
2023-04-08T17:37:43.588Z,101014.19
2023-04-08T17:40:12.401Z,101016.63
2023-04-08T17:42:41.573Z,101020.28
2023-04-08T17:45:10.539Z,101022.16
2023-04-08T17:47:39.623Z,101021.50
2023-04-08T17:50:10.560Z,101027.47
2023-04-08T17:52:46.252Z,101031.16
2023-04-08T17:55:14.963Z,101024.28
2023-04-08T17:57:43.823Z,101025.22
2023-04-08T18:00:12.716Z,101027.13
2023-04-08T18:02:42.950Z,101026.38
2023-04-08T18:05:11.957Z,101025.56
2023-04-08T18:07:40.833Z,101028.09
2023-04-08T18:10:09.852Z,101028.19
2023-04-08T18:12:38.782Z,101032.75
2023-04-08T18:15:07.862Z,101025.66
2023-04-08T18:17:37.107Z,101025.66
2023-04-08T18:20:06.616Z,101026.63
2023-04-08T18:22:35.481Z,101030.22
2023-04-08T18:25:04.822Z,101026.63
2023-04-08T18:27:34.041Z,101032.03
2023-04-08T18:30:02.522Z,101048.03
2023-04-08T18:32:31.573Z,101058.44
2023-04-08T18:35:00.458Z,101066.50
2023-04-08T18:37:30.576Z,101069.06
2023-04-08T18:40:00.114Z,101074.38
2023-04-08T18:42:29.156Z,101074.47
2023-04-08T18:44:57.593Z,101073.50
2023-04-08T18:47:26.722Z,101084.97
2023-04-08T18:49:56.785Z,101084.84
2023-04-08T18:52:25.913Z,101091.03
2023-04-08T18:54:54.840Z,101094.41
2023-04-08T18:57:23.713Z,101097.81
2023-04-08T18:59:52.275Z,101095.06
2023-04-08T19:02:23.131Z,101098.53
2023-04-08T19:04:52.261Z,101104.69
2023-04-08T19:07:21.139Z,101104.59
2023-04-08T19:09:49.723Z,101119.53
2023-04-08T19:12:18.562Z,101121.28
2023-04-08T19:14:47.403Z,101121.19
2023-04-08T19:17:16.429Z,101125.41
2023-04-08T19:19:45.150Z,101121.09
2023-04-08T19:22:14.042Z,101123.59
2023-04-08T19:24:43.408Z,101123.84
2023-04-08T19:27:14.403Z,101123.84
2023-04-08T19:29:42.795Z,101128.06
2023-04-08T19:32:13.488Z,101131.69
2023-04-08T19:34:43.170Z,101129.88
2023-04-08T19:37:12.885Z,101124.69
2023-04-08T19:39:42.123Z,101129.97
2023-04-08T19:42:13.017Z,101137.00
2023-04-08T19:44:42.940Z,101137.84
2023-04-08T19:47:12.477Z,101135.09
2023-04-08T19:49:42.598Z,101144.00
2023-04-08T19:52:12.768Z,101148.34
2023-04-08T19:54:43.679Z,101146.63
2023-04-08T19:57:12.978Z,101149.28
2023-04-08T19:59:42.268Z,101149.28
2023-04-08T20:02:11.517Z,101150.13
2023-04-08T20:04:40.567Z,101146.63
2023-04-08T20:07:09.702Z,101138.69
2023-04-08T20:09:38.194Z,101144.97
2023-04-08T20:12:07.010Z,101146.63
2023-04-08T20:14:42.183Z,101140.50
2023-04-08T20:17:13.189Z,101151.00
2023-04-08T20:19:41.889Z,101144.00
2023-04-08T20:22:10.670Z,101151.00
2023-04-08T20:24:39.105Z,101145.69
2023-04-08T20:27:08.677Z,101156.31
2023-04-08T20:29:38.589Z,101156.31
2023-04-08T20:32:07.789Z,101153.66
2023-04-08T20:34:36.389Z,101159.56
2023-04-08T20:37:05.218Z,101162.22
2023-04-08T20:39:33.613Z,101165.13
2023-04-08T20:42:02.352Z,101165.22
2023-04-08T20:44:30.783Z,101161.81
2023-04-08T20:46:59.581Z,101161.81
2023-04-08T20:49:28.041Z,101169.78
2023-04-08T20:51:56.953Z,101158.41
2023-04-08T20:54:26.753Z,101167.22
2023-04-08T20:56:56.232Z,101160.31
2023-04-08T20:59:25.379Z,101162.84
2023-04-08T21:01:54.910Z,101159.47
2023-04-08T21:04:25.070Z,101165.59
2023-04-08T21:06:53.918Z,101157.66
2023-04-08T21:09:22.503Z,101159.47
2023-04-08T21:11:51.216Z,101152.44
2023-04-08T21:14:19.784Z,101159.56
2023-04-08T21:16:48.657Z,101162.22
2023-04-08T21:19:17.085Z,101161.56
2023-04-08T21:21:46.747Z,101155.19
2023-04-08T21:24:15.148Z,101159.66
2023-04-08T21:26:43.879Z,101162.41
2023-04-08T21:29:12.480Z,101157.09
2023-04-08T21:31:42.492Z,101157.09
2023-04-08T21:34:11.149Z,101164.13
2023-04-08T21:36:39.797Z,101160.72
2023-04-08T21:39:08.238Z,101162.41
2023-04-08T21:41:36.919Z,101160.72
2023-04-08T21:44:05.440Z,101165.16
2023-04-08T21:46:34.161Z,101159.00
2023-04-08T21:49:02.548Z,101162.50
2023-04-08T21:51:31.299Z,101171.34
2023-04-08T21:53:59.638Z,101164.31
2023-04-08T21:56:28.408Z,101160.72
2023-04-08T21:58:56.792Z,101164.31
2023-04-08T22:01:25.522Z,101162.63
2023-04-08T22:03:55.690Z,101160.81
2023-04-08T22:06:32.229Z,101172.38
2023-04-08T22:09:01.541Z,101164.31
2023-04-08T22:11:30.914Z,101174.94
2023-04-08T22:13:59.303Z,101170.59
2023-04-08T22:16:28.394Z,101167.94
2023-04-08T22:18:57.325Z,101166.97
2023-04-08T22:21:26.422Z,101164.31
2023-04-08T22:23:54.856Z,101174.94
2023-04-08T22:26:23.715Z,101166.22
2023-04-08T22:28:52.649Z,101167.94
2023-04-08T22:31:22.404Z,101171.44
2023-04-08T22:33:51.171Z,101164.53
2023-04-08T22:36:19.907Z,101163.56
2023-04-08T22:38:48.311Z,101163.56
2023-04-08T22:41:21.007Z,101169.72
2023-04-08T22:43:49.874Z,101166.22
2023-04-08T22:46:20.183Z,101166.22
2023-04-08T22:48:49.677Z,101163.56
2023-04-08T22:51:18.596Z,101168.97
2023-04-08T22:53:46.957Z,101164.53
2023-04-08T22:56:15.803Z,101160.09
2023-04-08T22:58:44.168Z,101165.38
2023-04-08T23:01:15.206Z,101157.53
2023-04-08T23:03:44.248Z,101168.03
2023-04-08T23:06:12.953Z,101171.53
2023-04-08T23:08:41.550Z,101166.47
2023-04-08T23:11:10.262Z,101168.13
2023-04-08T23:13:38.666Z,101168.13
2023-04-08T23:16:07.505Z,101166.31
2023-04-08T23:18:35.891Z,101170.78
2023-04-08T23:21:04.890Z,101175.25
2023-04-08T23:23:33.254Z,101171.03
2023-04-08T23:26:02.042Z,101171.75
2023-04-08T23:28:30.488Z,101178.75
2023-04-08T23:30:59.236Z,101178.75
2023-04-08T23:33:27.515Z,101182.38
2023-04-08T23:35:56.311Z,101183.22
2023-04-08T23:38:24.636Z,101186.72
2023-04-08T23:40:53.481Z,101191.16
2023-04-08T23:43:21.732Z,101180.66
2023-04-08T23:45:50.432Z,101185.13
2023-04-08T23:48:18.612Z,101196.56
2023-04-08T23:50:54.510Z,101181.63
2023-04-08T23:53:22.913Z,101178.09
2023-04-08T23:55:51.822Z,101184.28
2023-04-08T23:58:20.107Z,101189.69
